Terminal Aerodrome Forecast
Issued by NWS

Home | Current Version | Previous Version | Text Only | Print | Product List | Glossary On
Versions: 1 2 3 4 5 6 7 8 9 10 11 12 13 14 15 16 17 18 19 20 21 22 23 24 25 26 27 28 29 30 31 32 33 34 35 36 37 38 39 40 41 42 43 44 45 46 47 48 49 50
000
FTUS43 KDDC 202116 AAI
TAFHYS
TAF AMD
KHYS 202116Z 2021/2118 28008KT P6SM FEW021 OVC029
     FM210000 29007KT 5SM BR VCSH OVC020
     FM210300 27008KT P6SM VCSH OVC050
     FM210900 27004KT 5SM BR VCFG SCT150=

USA.gov is the U.S. government's official web portal to all federal, state and local government web resources and services.